Quenton Craig Harris — WDH9504 — position and weather

sailwx.info

Track history (hours):
 
Tides and Currents Weather Stations Pressure Air Temp Water Temp Dewpoint Dewpoint Depression Visibility Wind Speed Wind Dir Waves Ship Positions

Quenton Craig Harris

Owner: Marquette Transportation Co. LLC, Paducah, KY. More information available from US FCC via Universal Licensing System and Coast Guard Vessel Documentation Center.

Last reported at 2018-Jul-22 12:30 UTC. Time now 2018-Jul-22 12:52 UTC.
Position N 30°03' W 090°40'.

Length 42 m; draft 3 m.

Type: Towing. MMSI: 367668760.

Date/timePositionNaut miles runAvg speedWind from/ knotsBaromVisibWave heightAir tempDewpointWater temp
2018-Jul-22 12:30N 30°03' W 090°40'3 5.4
2018-Jul-22 11:55N 30°02' W 090°37'2 5.2
2018-Jul-22 11:30N 30°03' W 090°35'3 5.1
2018-Jul-22 11:00N 30°03' W 090°32'3 5.1
2018-Jul-22 10:29N 30°03' W 090°28'0 0.3
2018-Jul-22 09:58N 30°02' W 090°28'0 0.0
2018-Jul-22 09:28N 30°02' W 090°28'0 0.1
2018-Jul-22 08:59N 30°03' W 090°28'0 0.0
2018-Jul-22 08:29N 30°03' W 090°28'0 0.0
2018-Jul-22 07:59N 30°03' W 090°28'0 0.1
2018-Jul-22 07:25N 30°03' W 090°28'0 0.0
2018-Jul-22 05:27N 30°03' W 090°28'0 0.0
2018-Jul-22 04:12N 30°03' W 090°28'0 0.0
2018-Jul-22 04:00N 30°03' W 090°28'5 0.3
2018-Jul-21 13:54N 30°03' W 090°34'0 0.0
2018-Jul-21 11:12N 30°03' W 090°34'0 0.0
2018-Jul-21 10:54N 30°03' W 090°34'0 0.0
2018-Jul-21 10:30N 30°03' W 090°34'0 0.0
2018-Jul-21 09:54N 30°03' W 090°34'0 0.0
2018-Jul-21 09:27N 30°03' W 090°34'0 0.0
2018-Jul-21 08:56N 30°03' W 090°34'0 0.0
2018-Jul-21 08:27N 30°03' W 090°34'0 0.0
2018-Jul-21 07:50N 30°03' W 090°34'0 0.0
2018-Jul-21 07:24N 30°03' W 090°34'0 0.0
2018-Jul-21 06:59N 30°03' W 090°34'0 0.1
2018-Jul-21 05:45N 30°03' W 090°34'0 0.0
2018-Jul-21 05:29N 30°03' W 090°34'18 1.0
2018-Jul-20 12:06N 30°04' W 090°54'0 0.0
2018-Jul-20 11:59N 30°04' W 090°54'0 0.0
2018-Jul-20 11:31N 30°04' W 090°54'0 0.0
2018-Jul-20 10:59N 30°04' W 090°54'0 0.0
2018-Jul-20 10:30N 30°04' W 090°54'0 0.0
2018-Jul-20 10:00N 30°04' W 090°54'0 0.0
2018-Jul-20 09:29N 30°04' W 090°54'0 0.0
2018-Jul-20 08:55N 30°04' W 090°54'0 0.0
2018-Jul-20 08:19N 30°04' W 090°54'0 0.0
2018-Jul-20 06:55N 30°04' W 090°54'3 1.8
2018-Jul-20 05:11N 30°07' W 090°57'106 3.3
2018-Jul-18 20:43N 31°51' W 091°17'8 8.6
2018-Jul-18 19:47N 31°58' W 091°11'3 8.4
2018-Jul-18 19:28N 31°59' W 091°09'4 8.8
2018-Jul-18 19:00N 32°01' W 091°04'4 8.3
2018-Jul-18 18:28N 32°05' W 091°05'3 5.5
2018-Jul-18 18:00N 32°08' W 091°05'4 7.7
2018-Jul-18 17:30N 32°08' W 091°01'5 9.2
2018-Jul-18 17:00N 32°12' W 090°59'5 9.4
2018-Jul-18 16:30N 32°17' W 090°57'4 8.4
2018-Jul-18 16:00N 32°20' W 090°54'4 8.5
2018-Jul-18 15:30N 32°21' W 090°59'3 6.6
2018-Jul-18 15:00N 32°24' W 090°59'5 9.3
2018-Jul-18 14:30N 32°27' W 091°04'4 8.6
2018-Jul-18 14:00N 32°31' W 091°07'4 8.7
2018-Jul-18 13:31N 32°35' W 091°07'5 8.4
2018-Jul-18 12:55N 32°40' W 091°08'4 3.6
2018-Jul-18 11:41N 32°44' W 091°08'  
Track history (hours):
 
Tides and Currents Weather Stations Pressure Air Temp Water Temp Dewpoint Dewpoint Depression Visibility Wind Speed Wind Dir Waves Ship Positions

Quenton Craig Harris

Owner: Marquette Transportation Co. LLC, Paducah, KY. More information available from US FCC via Universal Licensing System and Coast Guard Vessel Documentation Center.

Last reported at 2018-Jul-22 12:30 UTC. Time now 2018-Jul-22 12:52 UTC.
Position N 30°03' W 090°40'.

Length 42 m; draft 3 m.

Type: Towing. MMSI: 367668760.

Date/timePositionNaut miles runAvg speedWind from/ knotsBaromVisibWave heightAir tempDewpointWater temp
2018-Jul-22 12:30N 30°03' W 090°40'3 5.4
2018-Jul-22 11:55N 30°02' W 090°37'2 5.2
2018-Jul-22 11:30N 30°03' W 090°35'3 5.1
2018-Jul-22 11:00N 30°03' W 090°32'3 5.1
2018-Jul-22 10:29N 30°03' W 090°28'0 0.3
2018-Jul-22 09:58N 30°02' W 090°28'0 0.0
2018-Jul-22 09:28N 30°02' W 090°28'0 0.1
2018-Jul-22 08:59N 30°03' W 090°28'0 0.0
2018-Jul-22 08:29N 30°03' W 090°28'0 0.0
2018-Jul-22 07:59N 30°03' W 090°28'0 0.1
2018-Jul-22 07:25N 30°03' W 090°28'0 0.0
2018-Jul-22 05:27N 30°03' W 090°28'0 0.0
2018-Jul-22 04:12N 30°03' W 090°28'0 0.0
2018-Jul-22 04:00N 30°03' W 090°28'5 0.3
2018-Jul-21 13:54N 30°03' W 090°34'0 0.0
2018-Jul-21 11:12N 30°03' W 090°34'0 0.0
2018-Jul-21 10:54N 30°03' W 090°34'0 0.0
2018-Jul-21 10:30N 30°03' W 090°34'0 0.0
2018-Jul-21 09:54N 30°03' W 090°34'0 0.0
2018-Jul-21 09:27N 30°03' W 090°34'0 0.0
2018-Jul-21 08:56N 30°03' W 090°34'0 0.0
2018-Jul-21 08:27N 30°03' W 090°34'0 0.0
2018-Jul-21 07:50N 30°03' W 090°34'0 0.0
2018-Jul-21 07:24N 30°03' W 090°34'0 0.0
2018-Jul-21 06:59N 30°03' W 090°34'0 0.1
2018-Jul-21 05:45N 30°03' W 090°34'0 0.0
2018-Jul-21 05:29N 30°03' W 090°34'18 1.0
2018-Jul-20 12:06N 30°04' W 090°54'0 0.0
2018-Jul-20 11:59N 30°04' W 090°54'0 0.0
2018-Jul-20 11:31N 30°04' W 090°54'0 0.0
2018-Jul-20 10:59N 30°04' W 090°54'0 0.0
2018-Jul-20 10:30N 30°04' W 090°54'0 0.0
2018-Jul-20 10:00N 30°04' W 090°54'0 0.0
2018-Jul-20 09:29N 30°04' W 090°54'0 0.0
2018-Jul-20 08:55N 30°04' W 090°54'0 0.0
2018-Jul-20 08:19N 30°04' W 090°54'0 0.0
2018-Jul-20 06:55N 30°04' W 090°54'3 1.8
2018-Jul-20 05:11N 30°07' W 090°57'106 3.3
2018-Jul-18 20:43N 31°51' W 091°17'8 8.6
2018-Jul-18 19:47N 31°58' W 091°11'3 8.4
2018-Jul-18 19:28N 31°59' W 091°09'4 8.8
2018-Jul-18 19:00N 32°01' W 091°04'4 8.3
2018-Jul-18 18:28N 32°05' W 091°05'3 5.5
2018-Jul-18 18:00N 32°08' W 091°05'4 7.7
2018-Jul-18 17:30N 32°08' W 091°01'5 9.2
2018-Jul-18 17:00N 32°12' W 090°59'5 9.4
2018-Jul-18 16:30N 32°17' W 090°57'4 8.4
2018-Jul-18 16:00N 32°20' W 090°54'4 8.5
2018-Jul-18 15:30N 32°21' W 090°59'3 6.6
2018-Jul-18 15:00N 32°24' W 090°59'5 9.3
2018-Jul-18 14:30N 32°27' W 091°04'4 8.6
2018-Jul-18 14:00N 32°31' W 091°07'4 8.7
2018-Jul-18 13:31N 32°35' W 091°07'5 8.4
2018-Jul-18 12:55N 32°40' W 091°08'4 3.6
2018-Jul-18 11:41N 32°44' W 091°08'  

Dump ship's entire track history